createdAt,value
2022-09-10T00:05:54.609Z,78.57
2022-09-10T00:12:56.559Z,78.77
2022-09-10T00:19:59.804Z,78.95
2022-09-10T00:27:01.965Z,78.94
2022-09-10T00:34:06.068Z,79.64
2022-09-10T00:41:09.067Z,79.27
2022-09-10T00:48:21.265Z,79.83
2022-09-10T00:55:23.736Z,79.60
2022-09-10T01:02:26.482Z,79.12
2022-09-10T01:09:29.410Z,79.69
2022-09-10T01:16:46.586Z,79.59
2022-09-10T01:24:30.029Z,79.38
2022-09-10T01:31:40.716Z,79.73
2022-09-10T01:38:43.165Z,79.95
2022-09-10T01:46:30.420Z,79.91
2022-09-10T01:53:43.777Z,79.65
2022-09-10T02:00:56.354Z,79.65
2022-09-10T02:08:02.268Z,79.79
2022-09-10T02:15:05.187Z,79.69
2022-09-10T02:22:07.092Z,79.76
2022-09-10T02:29:10.510Z,80.06
2022-09-10T02:36:12.564Z,79.94
2022-09-10T02:43:14.549Z,79.82
2022-09-10T02:50:16.624Z,80.19
2022-09-10T02:57:18.869Z,80.09
2022-09-10T03:04:20.834Z,80.16
2022-09-10T03:11:25.761Z,80.12
2022-09-10T03:18:32.010Z,80.14
2022-09-10T03:25:34.146Z,79.89
2022-09-10T03:32:36.115Z,80.50
2022-09-10T03:39:38.237Z,80.04
2022-09-10T03:46:40.355Z,80.39
2022-09-10T03:53:43.803Z,80.02
2022-09-10T04:00:46.771Z,80.27
2022-09-10T04:07:48.702Z,80.47
2022-09-10T04:14:50.608Z,80.17
2022-09-10T04:21:53.256Z,80.65
2022-09-10T04:28:55.216Z,80.62
2022-09-10T04:36:00.866Z,80.44
2022-09-10T04:43:02.868Z,80.74
2022-09-10T04:50:06.791Z,80.43
2022-09-10T04:57:09.232Z,81.08
2022-09-10T05:04:11.337Z,80.63
2022-09-10T05:11:13.507Z,80.17
2022-09-10T05:18:16.965Z,80.52
2022-09-10T05:25:19.172Z,80.43
2022-09-10T05:32:21.054Z,80.77
2022-09-10T05:39:23.105Z,80.69
2022-09-10T05:46:25.255Z,80.43
2022-09-10T05:53:27.150Z,80.43
2022-09-10T06:00:29.587Z,80.11
2022-09-10T06:07:31.767Z,79.99
2022-09-10T06:14:34.592Z,80.04
2022-09-10T06:21:36.521Z,80.55
2022-09-10T06:28:38.543Z,80.56
2022-09-10T06:35:40.503Z,80.40
2022-09-10T06:42:42.945Z,79.92
2022-09-10T06:49:45.152Z,80.84
2022-09-10T06:56:49.339Z,79.87
2022-09-10T07:03:56.306Z,80.21
2022-09-10T07:11:03.801Z,80.09
2022-09-10T07:18:06.001Z,79.55
2022-09-10T07:25:08.684Z,79.10
2022-09-10T07:32:13.377Z,79.43
2022-09-10T07:39:15.780Z,78.75
2022-09-10T07:46:21.762Z,78.89
2022-09-10T07:53:23.712Z,79.00
2022-09-10T08:00:25.830Z,78.02
2022-09-10T08:07:27.910Z,77.93
2022-09-10T08:14:30.348Z,77.80
2022-09-10T08:21:32.786Z,78.12
2022-09-10T08:28:36.056Z,78.10
2022-09-10T08:35:38.320Z,77.83
2022-09-10T08:42:50.395Z,78.29
2022-09-10T08:49:58.996Z,77.19
2022-09-10T08:57:04.025Z,77.00
2022-09-10T09:04:12.502Z,77.02
2022-09-10T09:11:39.940Z,76.87
2022-09-10T09:19:14.586Z,76.68
2022-09-10T09:26:16.883Z,76.92
2022-09-10T09:33:23.584Z,76.56
2022-09-10T09:41:23.052Z,76.80
2022-09-10T09:48:29.267Z,76.74
2022-09-10T09:55:36.728Z,76.49
2022-09-10T10:02:39.457Z,76.74
2022-09-10T10:09:43.829Z,76.06
2022-09-10T10:16:48.832Z,75.90
2022-09-10T10:23:50.847Z,76.14
2022-09-10T10:30:57.630Z,76.26
2022-09-10T10:38:31.682Z,76.05
2022-09-10T10:45:44.634Z,76.06
2022-09-10T10:53:08.551Z,75.53
2022-09-10T11:00:13.637Z,76.08
2022-09-10T11:07:32.296Z,75.76
2022-09-10T11:14:43.738Z,75.57
2022-09-10T11:21:51.989Z,75.45
2022-09-10T11:29:15.711Z,75.41
2022-09-10T11:36:51.741Z,75.27
2022-09-10T11:44:19.152Z,75.09
2022-09-10T11:51:28.412Z,74.92
2022-09-10T11:58:45.396Z,74.90
2022-09-10T12:06:19.301Z,75.09
2022-09-10T12:13:21.905Z,75.58
2022-09-10T12:20:30.965Z,75.12
2022-09-10T12:27:50.843Z,75.15
2022-09-10T12:35:30.593Z,74.97
2022-09-10T12:42:34.718Z,74.51
2022-09-10T12:49:55.225Z,74.82
2022-09-10T12:57:00.623Z,75.07
2022-09-10T13:04:02.857Z,75.00
2022-09-10T13:11:25.785Z,73.83
2022-09-10T13:18:38.200Z,74.58
2022-09-10T13:25:44.526Z,74.55
2022-09-10T13:32:59.645Z,74.46
2022-09-10T13:40:13.785Z,74.98
2022-09-10T13:47:30.035Z,75.04
2022-09-10T13:54:37.415Z,74.96
2022-09-10T14:01:59.790Z,75.21
2022-09-10T14:09:06.618Z,75.45
2022-09-10T14:16:12.492Z,75.11
2022-09-10T14:23:15.935Z,75.59
2022-09-10T14:30:26.008Z,74.98
2022-09-10T14:37:39.675Z,75.14
2022-09-10T14:44:42.519Z,74.76
2022-09-10T14:51:44.618Z,74.46
2022-09-10T14:58:48.242Z,74.11
2022-09-10T15:05:50.167Z,73.96
2022-09-10T15:12:53.585Z,74.43
2022-09-10T15:19:56.214Z,74.50
2022-09-10T15:26:58.164Z,74.21
2022-09-10T15:34:00.238Z,74.49
2022-09-10T15:41:13.325Z,74.19
2022-09-10T15:48:16.384Z,74.57
2022-09-10T15:55:22.036Z,74.08
2022-09-10T16:02:24.419Z,73.96
2022-09-10T16:09:26.460Z,74.43
2022-09-10T16:16:28.937Z,74.36
2022-09-10T16:23:34.296Z,74.27
2022-09-10T16:30:36.300Z,74.70
2022-09-10T16:37:38.258Z,75.05
2022-09-10T16:44:41.479Z,75.26
2022-09-10T16:51:46.319Z,75.17
2022-09-10T16:58:51.448Z,75.42
2022-09-10T17:05:54.063Z,75.80
2022-09-10T17:12:58.471Z,76.11
2022-09-10T17:20:02.843Z,76.54
2022-09-10T17:27:07.099Z,76.91
2022-09-10T17:34:15.480Z,76.71
2022-09-10T17:41:18.885Z,77.42
2022-09-10T17:48:28.217Z,77.67
2022-09-10T17:55:37.409Z,77.41
2022-09-10T18:02:40.195Z,77.38
2022-09-10T18:09:44.149Z,77.44
2022-09-10T18:16:47.926Z,77.57
2022-09-10T18:24:04.731Z,78.07
2022-09-10T18:31:09.095Z,78.51
2022-09-10T18:38:13.836Z,78.31
2022-09-10T18:45:18.252Z,78.57
2022-09-10T18:52:21.907Z,78.22
2022-09-10T18:59:28.201Z,78.64
2022-09-10T19:06:34.474Z,78.67
2022-09-10T19:13:36.486Z,78.29
2022-09-10T19:20:39.709Z,78.53
2022-09-10T19:27:41.922Z,78.30
2022-09-10T19:34:45.313Z,78.27
2022-09-10T19:41:49.785Z,78.41
2022-09-10T19:48:53.690Z,78.46
2022-09-10T19:55:56.043Z,78.50
2022-09-10T20:02:58.411Z,79.16
2022-09-10T20:10:02.245Z,80.05
2022-09-10T20:17:05.551Z,79.45
2022-09-10T20:24:08.405Z,79.72
2022-09-10T20:31:13.177Z,79.76
2022-09-10T20:38:15.071Z,80.64
2022-09-10T20:45:18.397Z,80.27
2022-09-10T20:52:20.535Z,80.31
2022-09-10T20:59:26.953Z,79.83
2022-09-10T21:06:31.835Z,79.97
2022-09-10T21:13:34.314Z,79.93
2022-09-10T21:20:36.511Z,80.28
2022-09-10T21:27:38.628Z,79.36
2022-09-10T21:34:40.837Z,79.70
2022-09-10T21:41:45.458Z,80.40
2022-09-10T21:48:47.575Z,81.18
2022-09-10T21:55:54.079Z,80.40
2022-09-10T22:02:55.964Z,80.49
2022-09-10T22:09:57.890Z,81.33
2022-09-10T22:17:00.259Z,81.35
2022-09-10T22:24:02.462Z,81.57
2022-09-10T22:31:16.064Z,81.42
2022-09-10T22:38:19.718Z,81.24
2022-09-10T22:45:21.938Z,80.89
2022-09-10T22:52:24.386Z,80.84
2022-09-10T22:59:27.554Z,81.00
2022-09-10T23:06:32.235Z,80.93
2022-09-10T23:13:34.933Z,81.10
2022-09-10T23:20:37.848Z,81.75
2022-09-10T23:27:39.977Z,81.80
2022-09-10T23:34:42.157Z,81.81
2022-09-10T23:41:44.303Z,81.54
2022-09-10T23:48:46.732Z,81.41
2022-09-10T23:55:49.098Z,81.78
